Time;durP1;ratioP1;P1;durP2;ratioP2;P2;SDS_P1;SDS_P2;PMS_P1;PMS_P2;Temp;Humidity;BMP_temperature;BMP_pressure;BME280_temperature;BME280_humidity;BME280_pressure;Samples;Min_cycle;Max_cycle;Signal;HPM_P1;HPM_P2
2022/11/10 00:01:53;;;;;;;;;;;17.10;95.90;;;;;;5094827;28;19962;-70
2022/11/10 00:04:19;;;;;;;;;;;17.20;96.00;;;;;;5113462;28;19924;-68
2022/11/10 00:06:47;;;;;;;;;;;17.20;95.90;;;;;;5114796;28;20322;-68
2022/11/10 00:09:13;;;;;;;;;;;17.20;95.90;;;;;;5113771;28;19927;-66
2022/11/10 00:11:39;;;;;;;;;;;17.00;95.90;;;;;;5096100;28;19924;-66
2022/11/10 00:17:01;;;;;;;;;;;17.00;95.90;;;;;;5115510;28;20023;-66
2022/11/10 00:19:27;;;;;;;;;;;17.20;95.90;;;;;;5113476;28;19992;-66
2022/11/10 00:21:53;;;;;;;;;;;17.10;95.80;;;;;;5095649;28;19934;-69
2022/11/10 00:24:18;;;;;;;;;;;17.20;95.80;;;;;;5113329;28;19923;-69
2022/11/10 00:26:44;;;;;;;;;;;17.20;96.00;;;;;;5113477;28;20365;-69
2022/11/10 00:29:10;;;;;;;;;;;16.90;95.70;;;;;;5113462;28;19923;-69
2022/11/10 00:31:38;;;;;;;;;;;17.30;95.90;;;;;;5112937;28;19959;-68
2022/11/10 00:34:04;;;;;;;;;;;17.20;95.80;;;;;;5114291;28;20019;-69
2022/11/10 00:36:30;;;;;;;;;;;17.20;95.80;;;;;;5114724;28;19967;-69
2022/11/10 00:38:56;;;;;;;;;;;17.20;95.80;;;;;;5113269;28;19931;-68
2022/11/10 00:41:21;;;;;;;;;;;17.10;95.70;;;;;;5114825;28;19928;-68
2022/11/10 00:43:47;;;;;;;;;;;17.30;95.80;;;;;;5113818;28;19927;-66
2022/11/10 00:46:12;;;;;;;;;;;17.20;95.70;;;;;;5113127;28;19924;-66
2022/11/10 00:48:38;;;;;;;;;;;17.10;95.70;;;;;;5113456;28;19923;-66
2022/11/10 00:51:04;;;;;;;;;;;17.00;95.70;;;;;;5114394;28;19970;-66
2022/11/10 00:53:29;;;;;;;;;;;17.30;95.70;;;;;;5113338;28;20404;-66
2022/11/10 00:55:55;;;;;;;;;;;17.10;95.60;;;;;;5099371;28;19920;-66
2022/11/10 00:58:21;;;;;;;;;;;17.20;95.60;;;;;;5094102;28;19924;-66
2022/11/10 01:00:46;;;;;;;;;;;17.20;95.60;;;;;;5111716;28;20385;-66
2022/11/10 01:03:15;;;;;;;;;;;17.20;95.60;;;;;;5111931;28;19927;-66
2022/11/10 01:05:41;;;;;;;;;;;17.30;95.60;;;;;;5114527;28;20300;-69
2022/11/10 01:08:07;;;;;;;;;;;17.30;95.70;;;;;;5095976;28;19919;-69
2022/11/10 01:10:32;;;;;;;;;;;17.20;95.60;;;;;;5096592;28;19928;-69
2022/11/10 01:12:58;;;;;;;;;;;17.30;95.60;;;;;;5115338;28;20342;-66
2022/11/10 01:15:23;;;;;;;;;;;17.10;95.60;;;;;;5117312;28;19969;-65
2022/11/10 01:17:49;;;;;;;;;;;17.30;95.70;;;;;;5118667;28;19953;-66
2022/11/10 01:20:15;;;;;;;;;;;17.20;95.50;;;;;;5134573;27;19924;-66
2022/11/10 01:22:41;;;;;;;;;;;17.30;95.60;;;;;;5100302;28;19924;-66
2022/11/10 01:25:07;;;;;;;;;;;17.20;95.60;;;;;;5116065;28;20349;-66
2022/11/10 01:27:32;;;;;;;;;;;16.80;95.50;;;;;;5115712;28;19923;-66
2022/11/10 01:29:58;;;;;;;;;;;;;;;;;;5116021;28;20285;-66
2022/11/10 01:32:24;;;;;;;;;;;17.00;95.00;;;;;;5116862;28;19931;-66
2022/11/10 01:34:50;;;;;;;;;;;17.00;95.60;;;;;;5116740;28;19924;-66
2022/11/10 01:37:15;;;;;;;;;;;17.10;95.60;;;;;;5118346;28;19993;-66
2022/11/10 01:39:41;;;;;;;;;;;16.90;95.50;;;;;;5115083;28;19924;-66
2022/11/10 01:42:06;;;;;;;;;;;16.90;95.50;;;;;;5116974;28;19931;-66
2022/11/10 01:44:35;;;;;;;;;;;16.70;95.40;;;;;;5116461;28;19923;-66
2022/11/10 01:47:01;;;;;;;;;;;17.00;95.50;;;;;;5116548;28;19924;-66
2022/11/10 01:49:27;;;;;;;;;;;17.10;95.50;;;;;;5116481;28;19930;-66
2022/11/10 01:51:53;;;;;;;;;;;16.90;95.40;;;;;;5118285;28;19927;-66
2022/11/10 01:54:26;;;;;;;;;;;17.00;95.40;;;;;;5116454;28;19931;-66
2022/11/10 01:56:52;;;;;;;;;;;16.90;95.40;;;;;;5115670;28;19960;-66
2022/11/10 01:59:19;;;;;;;;;;;17.00;95.40;;;;;;5099248;28;19931;-66
2022/11/10 02:01:45;;;;;;;;;;;17.10;95.50;;;;;;5115549;28;20073;-66
2022/11/10 02:04:12;;;;;;;;;;;16.80;95.40;;;;;;5115962;28;19969;-66
2022/11/10 02:06:38;;;;;;;;;;;17.10;95.40;;;;;;5115354;28;19924;-66
2022/11/10 02:09:04;;;;;;;;;;;17.00;95.40;;;;;;5099499;28;20289;-65
2022/11/10 02:11:29;;;;;;;;;;;17.00;95.40;;;;;;5099081;28;19931;-66
2022/11/10 02:13:55;;;;;;;;;;;17.30;95.50;;;;;;5099014;28;19930;-66
2022/11/10 02:16:21;;;;;;;;;;;17.00;95.30;;;;;;5090836;28;19931;-66
2022/11/10 02:18:47;;;;;;;;;;;16.90;95.30;;;;;;5097990;28;20297;-66
2022/11/10 02:21:14;;;;;;;;;;;17.00;95.40;;;;;;5099001;28;19928;-69
2022/11/10 02:23:50;;;;;;;;;;;16.80;95.30;;;;;;5115632;28;19975;-68
2022/11/10 02:26:17;;;;;;;;;;;16.80;95.30;;;;;;5115010;28;19931;-69
2022/11/10 02:28:42;;;;;;;;;;;16.90;95.30;;;;;;5116172;28;19928;-68
2022/11/10 02:31:08;;;;;;;;;;;17.00;95.30;;;;;;5116856;28;20015;-69
2022/11/10 02:33:34;;;;;;;;;;;16.80;95.30;;;;;;5114934;28;19928;-69
2022/11/10 02:36:00;;;;;;;;;;;16.90;95.30;;;;;;5115929;28;19920;-66
2022/11/10 02:38:25;;;;;;;;;;;17.10;95.30;;;;;;5115352;28;20019;-66
2022/11/10 02:40:51;;;;;;;;;;;16.90;95.30;;;;;;5114030;28;19935;-66
2022/11/10 02:43:17;;;;;;;;;;;16.80;95.30;;;;;;5115827;28;19931;-66
2022/11/10 02:45:45;;;;;;;;;;;16.90;95.30;;;;;;5081656;28;19920;-66
2022/11/10 02:48:11;;;;;;;;;;;17.00;95.30;;;;;;5097964;28;19923;-66
2022/11/10 02:50:37;;;;;;;;;;;17.00;95.30;;;;;;5115680;28;20065;-66
2022/11/10 02:53:02;;;;;;;;;;;16.70;95.20;;;;;;5116123;28;20404;-65
2022/11/10 02:55:28;;;;;;;;;;;17.10;95.30;;;;;;5098374;28;19924;-66
2022/11/10 02:57:54;;;;;;;;;;;16.90;95.20;;;;;;5094204;28;19956;-66
2022/11/10 03:00:19;;;;;;;;;;;17.00;95.30;;;;;;5078212;28;19924;-66
2022/11/10 03:02:45;;;;;;;;;;;17.00;95.30;;;;;;5098088;28;19923;-69
2022/11/10 03:05:11;;;;;;;;;;;16.90;95.20;;;;;;5098154;28;20286;-67
2022/11/10 03:07:36;;;;;;;;;;;16.80;95.20;;;;;;5113907;28;19928;-68
2022/11/10 03:10:03;;;;;;;;;;;16.70;95.20;;;;;;5116069;28;19997;-69
2022/11/10 03:12:28;;;;;;;;;;;16.80;95.40;;;;;;5116193;28;19924;-68
2022/11/10 03:14:54;;;;;;;;;;;17.00;95.30;;;;;;5114985;28;20053;-68
2022/11/10 03:17:19;;;;;;;;;;;16.90;95.20;;;;;;5097114;28;20038;-68
2022/11/10 03:19:45;;;;;;;;;;;16.80;95.20;;;;;;5080262;28;20444;-67
2022/11/10 03:22:11;;;;;;;;;;;16.80;95.20;;;;;;5115800;28;19924;-67
2022/11/10 03:24:36;;;;;;;;;;;16.90;95.20;;;;;;5114568;28;20304;-68
2022/11/10 03:27:02;;;;;;;;;;;16.70;95.20;;;;;;5114350;28;20311;-67
2022/11/10 03:29:30;;;;;;;;;;;16.80;95.20;;;;;;5096923;28;19969;-68
2022/11/10 03:31:56;;;;;;;;;;;17.00;95.40;;;;;;5114367;28;19924;-67
2022/11/10 03:34:21;;;;;;;;;;;16.90;95.20;;;;;;5112488;28;19946;-68
2022/11/10 03:36:47;;;;;;;;;;;16.70;95.10;;;;;;5095595;28;19927;-67
2022/11/10 03:39:12;;;;;;;;;;;16.80;95.20;;;;;;5114575;28;19924;-68
2022/11/10 03:41:38;;;;;;;;;;;16.80;95.10;;;;;;5114114;28;20068;-66
2022/11/10 03:44:04;;;;;;;;;;;16.90;95.20;;;;;;5115590;28;19988;-67
2022/11/10 03:46:29;;;;;;;;;;;17.00;95.20;;;;;;5114640;28;19924;-66
2022/11/10 03:48:55;;;;;;;;;;;17.00;95.20;;;;;;5113119;28;19924;-66
2022/11/10 03:51:20;;;;;;;;;;;16.70;95.10;;;;;;5113429;28;19923;-66
2022/11/10 03:53:46;;;;;;;;;;;16.80;95.20;;;;;;5114742;28;19920;-66
2022/11/10 03:56:12;;;;;;;;;;;16.70;95.10;;;;;;5097928;28;20391;-66
2022/11/10 03:58:37;;;;;;;;;;;17.00;95.10;;;;;;5112293;28;19928;-66
2022/11/10 04:01:03;;;;;;;;;;;16.90;95.20;;;;;;5114855;28;19930;-68
2022/11/10 04:03:29;;;;;;;;;;;16.90;95.30;;;;;;5115376;28;19924;-66
2022/11/10 04:16:51;;;;;;;;;;;16.70;95.10;;;;;;5084901;28;19924;-67
2022/11/10 04:19:17;;;;;;;;;;;16.80;95.10;;;;;;5074976;28;19976;-68
2022/11/10 04:21:42;;;;;;;;;;;16.80;95.10;;;;;;5113986;28;19924;-67
2022/11/10 04:24:08;;;;;;;;;;;16.90;95.20;;;;;;5094301;28;20017;-68
2022/11/10 04:26:36;;;;;;;;;;;16.90;95.30;;;;;;5113599;28;20053;-68
2022/11/10 04:29:02;;;;;;;;;;;16.70;95.10;;;;;;5113625;28;20026;-69
2022/11/10 04:31:29;;;;;;;;;;;16.90;95.20;;;;;;5096500;28;19947;-67
2022/11/10 04:33:54;;;;;;;;;;;16.70;95.10;;;;;;5095428;28;19998;-69
2022/11/10 04:36:24;;;;;;;;;;;16.80;95.10;;;;;;5096835;28;19923;-68
2022/11/10 04:38:50;;;;;;;;;;;16.80;95.10;;;;;;5113636;28;19969;-67
2022/11/10 04:41:15;;;;;;;;;;;16.60;95.00;;;;;;5094763;28;19924;-66
2022/11/10 04:43:41;;;;;;;;;;;16.80;95.10;;;;;;5113282;28;19931;-66
2022/11/10 04:46:07;;;;;;;;;;;17.00;95.20;;;;;;5113263;28;19927;-66
2022/11/10 04:48:33;;;;;;;;;;;16.80;95.10;;;;;;5112025;28;20330;-66
2022/11/10 04:51:05;;;;;;;;;;;16.70;95.10;;;;;;5112538;28;19927;-66
2022/11/10 04:53:30;;;;;;;;;;;16.70;94.70;;;;;;5095413;28;19923;-66
2022/11/10 04:55:58;;;;;;;;;;;;;;;;;;5113687;28;19931;-66
2022/11/10 04:58:23;;;;;;;;;;;16.90;95.10;;;;;;5096045;28;19931;-66
2022/11/10 05:00:49;;;;;;;;;;;17.00;95.20;;;;;;5096348;28;19923;-66
2022/11/10 05:03:14;;;;;;;;;;;16.70;95.10;;;;;;5112896;28;19923;-66
2022/11/10 05:05:40;;;;;;;;;;;16.60;95.00;;;;;;5113297;28;19924;-67
2022/11/10 05:08:06;;;;;;;;;;;16.90;95.10;;;;;;5112763;28;20266;-67
2022/11/10 05:10:32;;;;;;;;;;;16.50;95.00;;;;;;5113246;28;20270;-66
2022/11/10 05:12:58;;;;;;;;;;;16.80;95.10;;;;;;5112958;28;19923;-66
2022/11/10 05:15:23;;;;;;;;;;;16.60;95.00;;;;;;5112088;28;19976;-66
2022/11/10 05:17:49;;;;;;;;;;;16.80;95.10;;;;;;5112927;28;19967;-66
2022/11/10 05:20:18;;;;;;;;;;;16.50;95.00;;;;;;5112356;28;19923;-66
2022/11/10 05:23:36;;;;;;;;;;;16.70;95.10;;;;;;5093684;28;19927;-66
2022/11/10 05:25:32;;;;;;;;;;;16.80;95.10;;;;;;5112090;28;19923;-66
2022/11/10 05:27:58;;;;;;;;;;;16.60;95.10;;;;;;5112504;28;19924;-66
2022/11/10 05:30:24;;;;;;;;;;;16.60;95.10;;;;;;5112016;28;19930;-66
2022/11/10 05:32:49;;;;;;;;;;;16.80;95.10;;;;;;5112897;28;20016;-65
2022/11/10 05:35:15;;;;;;;;;;;;;;;;;;5112057;28;20369;-66
2022/11/10 05:37:41;;;;;;;;;;;16.70;95.10;;;;;;5113818;28;20404;-65
2022/11/10 05:40:07;;;;;;;;;;;16.60;95.10;;;;;;5113392;28;19931;-65
2022/11/10 05:42:32;;;;;;;;;;;16.80;95.10;;;;;;5114123;28;19963;-66
2022/11/10 05:44:58;;;;;;;;;;;16.90;95.10;;;;;;5112896;28;20392;-65
2022/11/10 05:47:24;;;;;;;;;;;16.70;95.10;;;;;;5112002;28;19924;-66
2022/11/10 05:49:49;;;;;;;;;;;16.50;95.00;;;;;;5112853;28;20018;-66
2022/11/10 05:52:15;;;;;;;;;;;16.90;95.10;;;;;;5112522;28;19966;-66
2022/11/10 05:54:40;;;;;;;;;;;16.70;95.10;;;;;;5113423;28;20023;-66
2022/11/10 05:57:06;;;;;;;;;;;16.80;95.10;;;;;;5111591;28;19928;-66
2022/11/10 05:59:32;;;;;;;;;;;16.70;95.00;;;;;;5116736;28;20437;-66
2022/11/10 06:01:57;;;;;;;;;;;16.60;95.00;;;;;;5117846;28;20373;-65
2022/11/10 06:04:23;;;;;;;;;;;16.70;95.10;;;;;;5116182;28;20372;-66
2022/11/10 06:06:48;;;;;;;;;;;16.60;95.00;;;;;;5098408;28;19920;-66
2022/11/10 06:09:14;;;;;;;;;;;16.70;95.10;;;;;;5117735;28;19924;-66
2022/11/10 06:11:40;;;;;;;;;;;16.70;95.10;;;;;;5115298;28;19924;-65
2022/11/10 06:14:05;;;;;;;;;;;16.90;95.10;;;;;;5116058;28;19924;-66
2022/11/10 06:16:31;;;;;;;;;;;;;;;;;;5097753;28;20306;-65
2022/11/10 06:18:57;;;;;;;;;;;16.90;95.10;;;;;;5115918;28;19969;-66
2022/11/10 06:21:23;;;;;;;;;;;16.50;95.00;;;;;;5116251;28;19924;-66
2022/11/10 06:23:48;;;;;;;;;;;16.70;95.10;;;;;;5115961;28;20389;-66
2022/11/10 06:26:14;;;;;;;;;;;16.80;95.10;;;;;;5116816;28;19969;-69
2022/11/10 06:28:39;;;;;;;;;;;16.80;95.10;;;;;;5114980;28;19920;-69
2022/11/10 06:31:05;;;;;;;;;;;16.70;95.10;;;;;;5115700;28;19924;-66
2022/11/10 06:33:31;;;;;;;;;;;16.70;95.10;;;;;;5111689;28;19931;-66
2022/11/10 06:35:56;;;;;;;;;;;16.80;95.10;;;;;;5114538;28;19930;-66
2022/11/10 06:38:22;;;;;;;;;;;16.80;95.10;;;;;;5111423;28;20335;-66
2022/11/10 06:40:48;;;;;;;;;;;16.80;95.10;;;;;;5095462;28;20434;-66
2022/11/10 06:43:13;;;;;;;;;;;17.00;95.20;;;;;;5096638;28;19931;-67
2022/11/10 06:45:39;;;;;;;;;;;16.80;95.10;;;;;;5078149;28;19956;-67
2022/11/10 06:48:12;;;;;;;;;;;16.60;95.10;;;;;;5115094;28;19923;-67
2022/11/10 06:50:38;;;;;;;;;;;16.70;95.10;;;;;;5094558;28;19924;-67
2022/11/10 06:53:03;;;;;;;;;;;16.90;95.20;;;;;;5095239;28;19984;-66
2022/11/10 06:55:29;;;;;;;;;;;16.90;95.10;;;;;;5105042;28;20397;-67
2022/11/10 06:57:55;;;;;;;;;;;16.80;95.10;;;;;;5097446;28;19924;-67
2022/11/10 07:00:20;;;;;;;;;;;16.90;95.10;;;;;;5083736;28;20065;-67
2022/11/10 07:02:46;;;;;;;;;;;16.80;95.00;;;;;;5094688;28;19977;-67
2022/11/10 07:05:14;;;;;;;;;;;17.00;95.10;;;;;;5112209;28;20026;-67
2022/11/10 07:07:39;;;;;;;;;;;16.80;95.00;;;;;;5115086;28;19930;-67
2022/11/10 07:10:05;;;;;;;;;;;16.80;95.00;;;;;;5115840;28;20312;-67
2022/11/10 07:12:31;;;;;;;;;;;16.80;95.00;;;;;;5097211;28;20023;-67
2022/11/10 07:14:56;;;;;;;;;;;16.80;95.00;;;;;;5113709;28;19975;-66
2022/11/10 07:17:23;;;;;;;;;;;16.70;95.00;;;;;;5116344;28;19930;-67
2022/11/10 07:19:48;;;;;;;;;;;16.70;94.90;;;;;;5109232;28;19923;-66
2022/11/10 07:22:14;;;;;;;;;;;16.60;94.90;;;;;;5097525;28;19931;-67
2022/11/10 07:24:40;;;;;;;;;;;16.70;94.90;;;;;;5114905;28;20315;-67
2022/11/10 07:27:07;;;;;;;;;;;16.80;95.00;;;;;;5114702;28;19927;-66
2022/11/10 07:29:32;;;;;;;;;;;17.00;95.00;;;;;;5114158;28;19931;-67
2022/11/10 07:31:58;;;;;;;;;;;16.90;95.00;;;;;;5113922;28;20327;-67
2022/11/10 07:34:24;;;;;;;;;;;16.90;94.90;;;;;;5115481;28;19924;-67
2022/11/10 07:36:49;;;;;;;;;;;16.90;95.00;;;;;;5116430;28;19923;-67
2022/11/10 07:39:15;;;;;;;;;;;16.50;94.80;;;;;;5113121;28;20385;-76
2022/11/10 07:41:40;;;;;;;;;;;17.00;95.00;;;;;;5113632;28;19923;-67
2022/11/10 07:44:06;;;;;;;;;;;16.80;94.90;;;;;;5113958;28;19924;-67
2022/11/10 07:46:32;;;;;;;;;;;16.90;94.90;;;;;;5114583;28;19923;-67
2022/11/10 07:48:57;;;;;;;;;;;16.90;94.90;;;;;;5113450;28;19923;-66
2022/11/10 07:51:23;;;;;;;;;;;17.00;94.90;;;;;;5114646;28;19927;-67
2022/11/10 07:53:48;;;;;;;;;;;16.70;94.80;;;;;;5114041;28;19930;-67
2022/11/10 07:56:14;;;;;;;;;;;16.80;94.90;;;;;;5113582;28;19930;-68
2022/11/10 07:58:40;;;;;;;;;;;17.10;94.90;;;;;;5112956;28;19946;-66
2022/11/10 08:01:05;;;;;;;;;;;17.00;94.90;;;;;;5115233;28;19924;-66
2022/11/10 08:03:31;;;;;;;;;;;16.90;94.80;;;;;;5114101;28;19931;-66
2022/11/10 08:05:57;;;;;;;;;;;17.10;94.90;;;;;;5115120;28;19971;-66
2022/11/10 08:08:22;;;;;;;;;;;17.00;94.80;;;;;;5114301;28;19963;-67
2022/11/10 08:10:48;;;;;;;;;;;17.10;94.80;;;;;;5086545;28;19977;-75
2022/11/10 08:13:13;;;;;;;;;;;17.30;94.90;;;;;;5110795;28;19923;-70
2022/11/10 08:15:39;;;;;;;;;;;16.90;94.80;;;;;;5104362;28;20010;-66
2022/11/10 08:18:12;;;;;;;;;;;17.10;94.80;;;;;;5110627;28;19930;-67
2022/11/10 08:20:37;;;;;;;;;;;17.00;94.80;;;;;;5093520;28;20010;-67
2022/11/10 08:23:04;;;;;;;;;;;17.10;94.80;;;;;;5105602;28;19974;-66
2022/11/10 08:25:30;;;;;;;;;;;17.00;94.80;;;;;;5088699;28;19924;-67
2022/11/10 08:27:57;;;;;;;;;;;17.10;94.80;;;;;;5093536;28;19930;-66
2022/11/10 08:30:22;;;;;;;;;;;17.20;94.80;;;;;;5096043;28;19930;-67
2022/11/10 08:32:48;;;;;;;;;;;17.10;94.70;;;;;;5107928;28;19924;-67
2022/11/10 08:35:14;;;;;;;;;;;16.90;94.80;;;;;;5103560;28;20400;-70
2022/11/10 08:37:39;;;;;;;;;;;17.30;94.80;;;;;;5123195;27;20305;-75
2022/11/10 08:40:06;;;;;;;;;;;17.10;94.70;;;;;;5112178;28;19923;-67
2022/11/10 08:42:31;;;;;;;;;;;17.00;94.60;;;;;;5113337;28;19980;-67
2022/11/10 08:44:57;;;;;;;;;;;17.00;94.70;;;;;;5112940;28;20006;-67
2022/11/10 08:47:22;;;;;;;;;;;17.30;94.80;;;;;;5112780;28;19920;-70
2022/11/10 08:49:48;;;;;;;;;;;16.90;94.70;;;;;;5112664;28;19995;-70
2022/11/10 08:52:13;;;;;;;;;;;17.10;94.80;;;;;;5112471;28;19924;-67
2022/11/10 08:54:39;;;;;;;;;;;17.00;94.70;;;;;;5115073;28;20354;-68
2022/11/10 08:57:05;;;;;;;;;;;17.10;94.70;;;;;;5111560;28;19923;-65
2022/11/10 08:59:30;;;;;;;;;;;17.40;94.70;;;;;;5113132;28;19927;-66
2022/11/10 09:01:56;;;;;;;;;;;17.10;94.60;;;;;;5112177;28;19923;-66
2022/11/10 09:04:22;;;;;;;;;;;17.20;94.70;;;;;;5112809;28;19923;-65
2022/11/10 09:06:47;;;;;;;;;;;17.10;94.60;;;;;;5112650;28;19924;-66
2022/11/10 09:09:13;;;;;;;;;;;17.30;94.70;;;;;;5111775;28;20286;-67
2022/11/10 09:11:39;;;;;;;;;;;17.20;94.70;;;;;;5114076;28;19919;-68
2022/11/10 09:14:04;;;;;;;;;;;17.50;94.70;;;;;;5114154;28;19924;-67
2022/11/10 09:16:30;;;;;;;;;;;17.00;94.60;;;;;;5104305;28;19924;-68
2022/11/10 09:18:56;;;;;;;;;;;17.20;94.70;;;;;;5104550;28;19924;-68
2022/11/10 09:21:21;;;;;;;;;;;17.30;94.70;;;;;;5112052;28;19927;-68
2022/11/10 09:23:47;;;;;;;;;;;17.10;94.60;;;;;;5112290;28;20341;-67
2022/11/10 09:26:13;;;;;;;;;;;17.10;94.70;;;;;;5113082;28;19959;-67
2022/11/10 09:28:38;;;;;;;;;;;17.30;94.70;;;;;;5114312;28;19949;-66
2022/11/10 09:31:04;;;;;;;;;;;17.30;94.70;;;;;;5111391;28;19975;-67
2022/11/10 09:33:30;;;;;;;;;;;17.10;94.70;;;;;;5096825;28;19924;-69
2022/11/10 09:35:56;;;;;;;;;;;17.30;94.70;;;;;;5117721;28;20262;-69
2022/11/10 09:38:22;;;;;;;;;;;17.10;94.60;;;;;;5117806;27;20022;-68
2022/11/10 09:40:50;;;;;;;;;;;17.30;94.70;;;;;;5118103;28;19998;-69
2022/11/10 09:43:18;;;;;;;;;;;17.20;94.70;;;;;;5097192;28;19924;-68
2022/11/10 09:45:45;;;;;;;;;;;17.30;94.70;;;;;;5116043;28;20011;-66
2022/11/10 09:48:10;;;;;;;;;;;17.60;94.80;;;;;;5116910;28;20448;-66
2022/11/10 09:50:39;;;;;;;;;;;17.30;94.80;;;;;;5116448;28;19967;-66
2022/11/10 09:53:04;;;;;;;;;;;17.20;94.70;;;;;;5116621;28;19993;-66
2022/11/10 09:55:32;;;;;;;;;;;17.40;94.80;;;;;;5117522;28;20030;-67
2022/11/10 09:57:58;;;;;;;;;;;17.20;94.80;;;;;;5116499;28;19923;-66
2022/11/10 10:00:23;;;;;;;;;;;17.20;94.80;;;;;;5116337;28;19930;-67
2022/11/10 10:02:58;;;;;;;;;;;17.70;94.90;;;;;;5117472;28;19928;-67
2022/11/10 10:05:32;;;;;;;;;;;17.50;94.90;;;;;;5099371;28;19924;-68
2022/11/10 10:08:05;;;;;;;;;;;17.30;94.50;;;;;;5117557;28;20018;-68
2022/11/10 10:10:31;;;;;;;;;;;17.70;95.00;;;;;;5082377;28;19935;-69
2022/11/10 10:13:02;;;;;;;;;;;17.40;95.00;;;;;;5117970;28;19924;-70
2022/11/10 10:15:43;;;;;;;;;;;17.70;95.20;;;;;;5117342;28;19924;-72
2022/11/10 10:18:27;;;;;;;;;;;17.60;95.20;;;;;;5116344;28;19923;-71
2022/11/10 10:21:05;;;;;;;;;;;17.60;94.80;;;;;;5116405;28;20293;-69
2022/11/10 10:23:34;;;;;;;;;;;17.40;95.10;;;;;;5099398;28;19935;-70
2022/11/10 10:26:00;;;;;;;;;;;17.80;94.80;;;;;;5116298;28;19924;-69
2022/11/10 10:28:38;;;;;;;;;;;17.60;95.30;;;;;;5115799;28;20412;-71
2022/11/10 10:31:24;;;;;;;;;;;17.60;95.30;;;;;;5115924;28;19924;-71
2022/11/10 10:33:50;;;;;;;;;;;17.60;95.30;;;;;;5131402;27;19924;-68
2022/11/10 10:36:26;;;;;;;;;;;17.90;95.30;;;;;;5114001;28;19931;-71
2022/11/10 10:38:53;;;;;;;;;;;17.60;95.20;;;;;;5096199;28;19932;-68
2022/11/10 10:41:19;;;;;;;;;;;17.50;95.20;;;;;;5091683;28;20440;-71
2022/11/10 10:43:45;;;;;;;;;;;17.50;95.20;;;;;;5107021;28;20018;-68
2022/11/10 10:46:11;;;;;;;;;;;17.70;95.30;;;;;;5091150;28;20449;-69
2022/11/10 10:48:37;;;;;;;;;;;17.70;95.40;;;;;;5085156;28;19967;-68
2022/11/10 10:51:02;;;;;;;;;;;17.80;95.40;;;;;;5111412;28;20407;-71
2022/11/10 10:53:28;;;;;;;;;;;17.50;95.50;;;;;;5114495;28;19924;-71
2022/11/10 10:56:02;;;;;;;;;;;17.60;95.20;;;;;;5096493;28;19931;-68
2022/11/10 10:58:31;;;;;;;;;;;17.40;95.50;;;;;;5113682;28;19924;-69
2022/11/10 11:01:03;;;;;;;;;;;17.60;95.50;;;;;;5114436;28;19993;-70
2022/11/10 11:03:40;;;;;;;;;;;17.40;95.50;;;;;;5109806;28;19932;-68
2022/11/10 11:06:18;;;;;;;;;;;17.60;95.60;;;;;;5113332;28;19928;-67
2022/11/10 11:08:57;;;;;;;;;;;19.60;95.70;;;;;;5112115;28;20403;-70
2022/11/10 11:11:25;;;;;;;;;;;17.80;95.30;;;;;;5098083;28;20019;-73
2022/11/10 11:13:51;;;;;;;;;;;17.60;95.50;;;;;;5114946;28;19928;-72
2022/11/10 11:16:17;;;;;;;;;;;18.00;95.60;;;;;;5097471;28;20018;-70
2022/11/10 11:18:42;;;;;;;;;;;18.00;95.70;;;;;;5097808;28;19923;-74
2022/11/10 11:21:27;;;;;;;;;;;17.90;95.50;;;;;;5115032;28;19930;-72
2022/11/10 11:24:08;;;;;;;;;;;18.10;95.50;;;;;;5116092;28;19924;-75
2022/11/10 11:26:46;;;;;;;;;;;17.70;95.00;;;;;;5114698;28;19930;-75
2022/11/10 11:29:26;;;;;;;;;;;18.10;95.50;;;;;;5114720;28;20018;-76
2022/11/10 11:31:58;;;;;;;;;;;17.90;95.00;;;;;;5114322;28;19927;-65
2022/11/10 11:34:46;;;;;;;;;;;18.10;95.00;;;;;;5097744;28;20006;-68
2022/11/10 11:37:20;;;;;;;;;;;18.00;94.70;;;;;;5077605;28;20335;-65
2022/11/10 11:39:48;;;;;;;;;;;18.10;95.30;;;;;;5097178;28;19923;-76
2022/11/10 11:42:14;;;;;;;;;;;18.20;95.20;;;;;;5114429;28;19985;-76
2022/11/10 11:44:46;;;;;;;;;;;18.40;95.30;;;;;;5114459;28;19931;-76
2022/11/10 11:47:14;;;;;;;;;;;18.30;95.20;;;;;;5112434;28;19935;-74
2022/11/10 11:49:55;;;;;;;;;;;18.10;94.80;;;;;;5091848;28;19925;-76
2022/11/10 11:52:21;;;;;;;;;;;18.20;94.80;;;;;;5094184;28;20342;-66
2022/11/10 11:54:50;;;;;;;;;;;18.10;95.10;;;;;;5097747;28;19970;-65
2022/11/10 11:57:20;;;;;;;;;;;18.40;95.60;;;;;;5114008;28;19923;-66
2022/11/10 11:59:52;;;;;;;;;;;18.30;95.10;;;;;;5113271;27;19930;-66
2022/11/10 12:02:17;;;;;;;;;;;18.10;95.00;;;;;;5107266;28;19924;-70
2022/11/10 12:04:55;;;;;;;;;;;18.30;95.10;;;;;;5114228;28;19976;-65
2022/11/10 12:07:43;;;;;;;;;;;18.40;94.70;;;;;;5096177;28;20285;-65
2022/11/10 12:10:28;;;;;;;;;;;18.40;94.70;;;;;;5113379;28;20242;-65
2022/11/10 12:13:03;;;;;;;;;;;18.20;95.00;;;;;;5112257;28;19930;-65
2022/11/10 12:15:47;;;;;;;;;;;18.10;95.10;;;;;;5128281;27;19924;-65
2022/11/10 12:18:29;;;;;;;;;;;18.50;94.80;;;;;;5112912;28;19924;-65
2022/11/10 12:21:11;;;;;;;;;;;18.30;95.20;;;;;;5112874;28;20352;-69
2022/11/10 12:23:36;;;;;;;;;;;18.30;95.10;;;;;;5112996;28;19924;-70
2022/11/10 12:26:05;;;;;;;;;;;18.10;95.20;;;;;;5113622;28;20292;-67
2022/11/10 12:28:32;;;;;;;;;;;18.30;94.70;;;;;;5095809;28;19928;-68
2022/11/10 12:30:59;;;;;;;;;;;18.20;95.30;;;;;;5088604;28;19931;-68
2022/11/10 12:33:35;;;;;;;;;;;18.20;95.10;;;;;;5075861;28;20019;-65
2022/11/10 12:36:02;;;;;;;;;;;18.20;94.70;;;;;;5093417;28;19931;-65
2022/11/10 12:38:50;;;;;;;;;;;18.10;95.10;;;;;;5076511;28;20369;-65
2022/11/10 12:41:17;;;;;;;;;;;18.30;95.20;;;;;;5096018;28;20293;-65
2022/11/10 12:43:47;;;;;;;;;;;18.00;95.10;;;;;;5096685;28;20323;-65
2022/11/10 12:46:13;;;;;;;;;;;18.40;95.40;;;;;;5096483;28;19924;-65
2022/11/10 12:49:04;;;;;;;;;;;18.30;95.20;;;;;;5113527;28;19924;-65
2022/11/10 12:51:48;;;;;;;;;;;18.00;94.70;;;;;;5074313;28;19924;-65
2022/11/10 12:54:14;;;;;;;;;;;18.10;94.70;;;;;;5096218;28;20014;-65
2022/11/10 12:56:41;;;;;;;;;;;18.00;95.10;;;;;;5107569;28;20057;-65
2022/11/10 12:59:14;;;;;;;;;;;18.10;95.20;;;;;;5111558;28;20317;-65
2022/11/10 13:01:43;;;;;;;;;;;18.30;94.80;;;;;;5110676;28;19930;-65
2022/11/10 13:04:11;;;;;;;;;;;18.20;94.90;;;;;;5106147;28;20334;-66
2022/11/10 13:06:39;;;;;;;;;;;17.90;95.20;;;;;;5109252;28;19947;-65
2022/11/10 13:09:04;;;;;;;;;;;18.00;95.20;;;;;;5110267;28;20399;-65
2022/11/10 13:11:31;;;;;;;;;;;18.10;95.50;;;;;;5113290;28;20014;-69
2022/11/10 13:14:04;;;;;;;;;;;18.10;95.40;;;;;;5113330;28;19924;-66
2022/11/10 13:16:43;;;;;;;;;;;18.10;95.40;;;;;;5096064;28;20457;-66
2022/11/10 13:19:09;;;;;;;;;;;18.20;95.00;;;;;;5114457;28;20347;-66
2022/11/10 13:22:03;;;;;;;;;;;18.00;95.60;;;;;;5095199;28;19923;-67
2022/11/10 13:24:29;;;;;;;;;;;18.00;95.00;;;;;;5126720;28;19928;-67
2022/11/10 13:26:55;;;;;;;;;;;17.90;95.40;;;;;;5095963;28;20018;-68
2022/11/10 13:29:39;;;;;;;;;;;17.80;95.50;;;;;;5104946;28;19979;-69
2022/11/10 13:32:14;;;;;;;;;;;17.80;95.10;;;;;;5093325;28;20011;-68
2022/11/10 13:34:43;;;;;;;;;;;17.80;95.50;;;;;;5100734;28;20297;-68
2022/11/10 13:37:27;;;;;;;;;;;18.00;95.50;;;;;;5106721;28;19947;-65
2022/11/10 13:39:53;;;;;;;;;;;18.00;95.60;;;;;;5103809;28;19924;-65
2022/11/10 13:42:19;;;;;;;;;;;17.50;95.50;;;;;;5109509;28;19932;-65
2022/11/10 13:44:46;;;;;;;;;;;18.00;95.80;;;;;;5112002;28;19924;-65
2022/11/10 13:47:33;;;;;;;;;;;18.00;95.70;;;;;;5101930;28;19924;-67
2022/11/10 13:49:59;;;;;;;;;;;17.70;95.10;;;;;;5103768;28;19924;-66
2022/11/10 13:52:28;;;;;;;;;;;17.80;95.60;;;;;;5112405;28;19976;-65
2022/11/10 13:54:56;;;;;;;;;;;17.80;95.50;;;;;;5114021;28;19923;-65
2022/11/10 13:57:25;;;;;;;;;;;18.10;95.30;;;;;;5114057;28;20014;-65
2022/11/10 13:59:54;;;;;;;;;;;18.00;95.70;;;;;;5112607;28;19928;-65
2022/11/10 14:02:31;;;;;;;;;;;17.50;95.60;;;;;;5112411;28;19928;-65
2022/11/10 14:04:57;;;;;;;;;;;17.70;95.20;;;;;;5113711;28;19924;-65
2022/11/10 14:07:23;;;;;;;;;;;17.90;95.80;;;;;;5112852;28;19924;-65
2022/11/10 14:09:49;;;;;;;;;;;17.90;95.70;;;;;;5113956;28;20006;-65
2022/11/10 14:12:24;;;;;;;;;;;17.90;95.70;;;;;;5108359;28;19923;-65
2022/11/10 14:15:00;;;;;;;;;;;17.80;95.70;;;;;;5108942;28;19924;-66
2022/11/10 14:17:27;;;;;;;;;;;17.60;95.70;;;;;;5092927;28;19966;-66
2022/11/10 14:19:53;;;;;;;;;;;17.70;95.70;;;;;;5087017;28;19927;-66
2022/11/10 14:22:24;;;;;;;;;;;18.00;95.90;;;;;;5099040;28;19931;-66
2022/11/10 14:24:55;;;;;;;;;;;17.60;95.80;;;;;;5099039;28;19923;-66
2022/11/10 14:27:27;;;;;;;;;;;17.60;95.40;;;;;;5116140;28;19928;-65
2022/11/10 14:30:20;;;;;;;;;;;17.90;95.50;;;;;;5088742;28;19967;-66
2022/11/10 14:32:55;;;;;;;;;;;17.70;95.80;;;;;;5080803;28;20351;-67
2022/11/10 14:35:21;;;;;;;;;;;17.50;95.80;;;;;;5115052;28;19981;-67
2022/11/10 14:37:48;;;;;;;;;;;17.80;96.00;;;;;;5115797;28;19930;-67